sensor_id;sensor_type;location;lat;lon;timestamp;temperature;humidity
18541;DHT22;9400;50.924;5.328;2022-07-23T00:00:58;18.70;99.90
18541;DHT22;9400;50.924;5.328;2022-07-23T00:03:25;18.60;99.90
18541;DHT22;9400;50.924;5.328;2022-07-23T00:05:53;18.50;99.90
18541;DHT22;9400;50.924;5.328;2022-07-23T00:08:21;18.50;99.90
18541;DHT22;9400;50.924;5.328;2022-07-23T00:10:49;18.60;99.90
18541;DHT22;9400;50.924;5.328;2022-07-23T00:13:18;18.60;99.90
18541;DHT22;9400;50.924;5.328;2022-07-23T00:15:45;18.50;99.90
18541;DHT22;9400;50.924;5.328;2022-07-23T00:18:13;18.50;99.90
18541;DHT22;9400;50.924;5.328;2022-07-23T00:20:41;18.50;99.90
18541;DHT22;9400;50.924;5.328;2022-07-23T00:23:09;18.50;99.90
18541;DHT22;9400;50.924;5.328;2022-07-23T00:25:38;18.60;99.90
18541;DHT22;9400;50.924;5.328;2022-07-23T00:28:06;18.50;99.90
18541;DHT22;9400;50.924;5.328;2022-07-23T00:30:36;18.50;99.90
18541;DHT22;9400;50.924;5.328;2022-07-23T00:33:05;18.50;99.90
18541;DHT22;9400;50.924;5.328;2022-07-23T00:35:36;18.40;99.90
18541;DHT22;9400;50.924;5.328;2022-07-23T00:38:09;18.30;99.90
18541;DHT22;9400;50.924;5.328;2022-07-23T00:40:38;18.30;99.90
18541;DHT22;9400;50.924;5.328;2022-07-23T00:43:05;18.20;99.90
18541;DHT22;9400;50.924;5.328;2022-07-23T00:45:35;18.20;99.90
18541;DHT22;9400;50.924;5.328;2022-07-23T00:48:03;18.20;99.90
18541;DHT22;9400;50.924;5.328;2022-07-23T00:50:31;18.20;99.90
18541;DHT22;9400;50.924;5.328;2022-07-23T00:52:59;18.20;99.90
18541;DHT22;9400;50.924;5.328;2022-07-23T00:55:27;18.10;99.90
18541;DHT22;9400;50.924;5.328;2022-07-23T00:57:58;18.10;99.90
18541;DHT22;9400;50.924;5.328;2022-07-23T01:00:25;18.10;99.90
18541;DHT22;9400;50.924;5.328;2022-07-23T01:02:55;18.10;99.90
18541;DHT22;9400;50.924;5.328;2022-07-23T01:05:23;18.10;99.90
18541;DHT22;9400;50.924;5.328;2022-07-23T01:07:51;18.00;99.90
18541;DHT22;9400;50.924;5.328;2022-07-23T01:10:19;17.90;99.90
18541;DHT22;9400;50.924;5.328;2022-07-23T01:13:00;17.90;99.90
18541;DHT22;9400;50.924;5.328;2022-07-23T01:15:29;17.80;99.90
18541;DHT22;9400;50.924;5.328;2022-07-23T01:17:58;17.70;99.90
18541;DHT22;9400;50.924;5.328;2022-07-23T01:20:26;17.60;99.90
18541;DHT22;9400;50.924;5.328;2022-07-23T01:22:55;17.60;99.90
18541;DHT22;9400;50.924;5.328;2022-07-23T01:25:23;17.70;99.90
18541;DHT22;9400;50.924;5.328;2022-07-23T01:27:52;17.70;99.90
18541;DHT22;9400;50.924;5.328;2022-07-23T01:30:20;17.70;99.90
18541;DHT22;9400;50.924;5.328;2022-07-23T01:32:48;17.60;99.90
18541;DHT22;9400;50.924;5.328;2022-07-23T01:35:15;17.70;99.90
18541;DHT22;9400;50.924;5.328;2022-07-23T01:37:43;17.70;99.90
18541;DHT22;9400;50.924;5.328;2022-07-23T01:40:12;17.70;99.90
18541;DHT22;9400;50.924;5.328;2022-07-23T01:42:39;17.80;99.90
18541;DHT22;9400;50.924;5.328;2022-07-23T01:45:08;17.70;99.90
18541;DHT22;9400;50.924;5.328;2022-07-23T01:47:35;17.60;99.90
18541;DHT22;9400;50.924;5.328;2022-07-23T01:50:03;17.50;99.90
18541;DHT22;9400;50.924;5.328;2022-07-23T01:52:31;17.40;99.90
18541;DHT22;9400;50.924;5.328;2022-07-23T01:55:00;17.50;99.90
18541;DHT22;9400;50.924;5.328;2022-07-23T01:57:29;17.50;99.90
18541;DHT22;9400;50.924;5.328;2022-07-23T01:59:57;17.40;99.90
18541;DHT22;9400;50.924;5.328;2022-07-23T02:02:25;17.30;99.90
18541;DHT22;9400;50.924;5.328;2022-07-23T02:04:52;17.40;99.90
18541;DHT22;9400;50.924;5.328;2022-07-23T02:07:20;17.50;99.90
18541;DHT22;9400;50.924;5.328;2022-07-23T02:09:47;17.50;99.90
18541;DHT22;9400;50.924;5.328;2022-07-23T02:12:15;17.40;99.90
18541;DHT22;9400;50.924;5.328;2022-07-23T02:14:47;17.30;99.90
18541;DHT22;9400;50.924;5.328;2022-07-23T02:17:15;17.40;99.90
18541;DHT22;9400;50.924;5.328;2022-07-23T02:19:42;17.30;99.90
18541;DHT22;9400;50.924;5.328;2022-07-23T02:22:10;17.40;99.90
18541;DHT22;9400;50.924;5.328;2022-07-23T02:24:44;17.40;99.90
18541;DHT22;9400;50.924;5.328;2022-07-23T02:27:17;17.30;99.90
18541;DHT22;9400;50.924;5.328;2022-07-23T02:29:46;17.10;99.90
18541;DHT22;9400;50.924;5.328;2022-07-23T02:32:14;17.30;99.90
18541;DHT22;9400;50.924;5.328;2022-07-23T02:34:44;17.30;99.90
18541;DHT22;9400;50.924;5.328;2022-07-23T02:37:12;17.30;99.90
18541;DHT22;9400;50.924;5.328;2022-07-23T02:39:39;17.30;99.90
18541;DHT22;9400;50.924;5.328;2022-07-23T02:42:07;17.40;99.90
18541;DHT22;9400;50.924;5.328;2022-07-23T02:44:35;17.30;99.90
18541;DHT22;9400;50.924;5.328;2022-07-23T02:47:04;17.30;99.90
18541;DHT22;9400;50.924;5.328;2022-07-23T02:49:32;17.20;99.90
18541;DHT22;9400;50.924;5.328;2022-07-23T02:52:00;17.20;99.90
18541;DHT22;9400;50.924;5.328;2022-07-23T02:54:28;17.10;99.90
18541;DHT22;9400;50.924;5.328;2022-07-23T02:56:56;17.10;99.90
18541;DHT22;9400;50.924;5.328;2022-07-23T02:59:23;17.20;99.90
18541;DHT22;9400;50.924;5.328;2022-07-23T03:01:51;17.20;99.90
18541;DHT22;9400;50.924;5.328;2022-07-23T03:04:20;17.00;99.90
18541;DHT22;9400;50.924;5.328;2022-07-23T03:06:48;17.00;99.90
18541;DHT22;9400;50.924;5.328;2022-07-23T03:09:16;17.00;99.90
18541;DHT22;9400;50.924;5.328;2022-07-23T03:11:44;16.90;99.90
18541;DHT22;9400;50.924;5.328;2022-07-23T03:14:12;17.00;99.90
18541;DHT22;9400;50.924;5.328;2022-07-23T03:16:45;16.90;99.90
18541;DHT22;9400;50.924;5.328;2022-07-23T03:19:13;16.90;99.90
18541;DHT22;9400;50.924;5.328;2022-07-23T03:21:42;16.80;99.90
18541;DHT22;9400;50.924;5.328;2022-07-23T03:24:10;16.80;99.90
18541;DHT22;9400;50.924;5.328;2022-07-23T03:26:38;16.90;99.90
18541;DHT22;9400;50.924;5.328;2022-07-23T03:29:05;17.00;99.90
18541;DHT22;9400;50.924;5.328;2022-07-23T03:31:33;16.90;99.90
18541;DHT22;9400;50.924;5.328;2022-07-23T03:34:01;16.80;99.90
18541;DHT22;9400;50.924;5.328;2022-07-23T03:36:28;16.80;99.90
18541;DHT22;9400;50.924;5.328;2022-07-23T03:38:57;16.70;99.90
18541;DHT22;9400;50.924;5.328;2022-07-23T03:41:29;16.70;99.90
18541;DHT22;9400;50.924;5.328;2022-07-23T03:43:56;16.70;99.90
18541;DHT22;9400;50.924;5.328;2022-07-23T03:46:24;16.60;99.90
18541;DHT22;9400;50.924;5.328;2022-07-23T03:48:52;16.50;99.90
18541;DHT22;9400;50.924;5.328;2022-07-23T03:51:19;16.50;99.90
18541;DHT22;9400;50.924;5.328;2022-07-23T03:53:49;16.40;99.90
18541;DHT22;9400;50.924;5.328;2022-07-23T03:56:18;16.50;99.90
18541;DHT22;9400;50.924;5.328;2022-07-23T03:58:48;16.50;99.90
18541;DHT22;9400;50.924;5.328;2022-07-23T04:01:16;16.50;99.90
18541;DHT22;9400;50.924;5.328;2022-07-23T04:03:44;16.50;99.90
18541;DHT22;9400;50.924;5.328;2022-07-23T04:06:13;16.50;99.90
18541;DHT22;9400;50.924;5.328;2022-07-23T04:08:40;16.40;99.90
18541;DHT22;9400;50.924;5.328;2022-07-23T04:11:08;16.40;99.90
18541;DHT22;9400;50.924;5.328;2022-07-23T04:13:37;16.40;99.90
18541;DHT22;9400;50.924;5.328;2022-07-23T04:16:05;16.40;99.90
18541;DHT22;9400;50.924;5.328;2022-07-23T04:18:32;16.40;99.90
18541;DHT22;9400;50.924;5.328;2022-07-23T04:21:00;16.50;99.90
18541;DHT22;9400;50.924;5.328;2022-07-23T04:23:28;16.40;99.90
18541;DHT22;9400;50.924;5.328;2022-07-23T04:25:55;16.40;99.90
18541;DHT22;9400;50.924;5.328;2022-07-23T04:28:23;16.40;99.90
18541;DHT22;9400;50.924;5.328;2022-07-23T04:30:52;16.50;99.90
18541;DHT22;9400;50.924;5.328;2022-07-23T04:33:20;16.60;99.90
18541;DHT22;9400;50.924;5.328;2022-07-23T04:35:47;16.50;99.90
18541;DHT22;9400;50.924;5.328;2022-07-23T04:38:15;16.50;99.90
18541;DHT22;9400;50.924;5.328;2022-07-23T04:40:42;16.50;99.90
18541;DHT22;9400;50.924;5.328;2022-07-23T04:43:10;16.40;99.90
18541;DHT22;9400;50.924;5.328;2022-07-23T04:45:46;16.50;99.90
18541;DHT22;9400;50.924;5.328;2022-07-23T04:48:15;16.50;99.90
18541;DHT22;9400;50.924;5.328;2022-07-23T04:50:43;16.60;99.90
18541;DHT22;9400;50.924;5.328;2022-07-23T04:53:11;16.60;99.90
18541;DHT22;9400;50.924;5.328;2022-07-23T04:55:39;16.60;99.90
18541;DHT22;9400;50.924;5.328;2022-07-23T04:58:06;16.70;99.90
18541;DHT22;9400;50.924;5.328;2022-07-23T05:00:33;16.70;99.90
18541;DHT22;9400;50.924;5.328;2022-07-23T05:03:01;16.70;99.90
18541;DHT22;9400;50.924;5.328;2022-07-23T05:05:32;16.80;99.90
18541;DHT22;9400;50.924;5.328;2022-07-23T05:08:00;16.90;99.90
18541;DHT22;9400;50.924;5.328;2022-07-23T05:10:27;17.00;99.90
18541;DHT22;9400;50.924;5.328;2022-07-23T05:12:55;16.90;99.90
18541;DHT22;9400;50.924;5.328;2022-07-23T05:15:22;16.80;99.90
18541;DHT22;9400;50.924;5.328;2022-07-23T05:17:50;16.80;99.90
18541;DHT22;9400;50.924;5.328;2022-07-23T05:20:17;16.80;99.90
18541;DHT22;9400;50.924;5.328;2022-07-23T05:22:49;16.90;99.90
18541;DHT22;9400;50.924;5.328;2022-07-23T05:25:17;16.80;99.90
18541;DHT22;9400;50.924;5.328;2022-07-23T05:27:45;16.90;99.90
18541;DHT22;9400;50.924;5.328;2022-07-23T05:30:13;17.00;99.90
18541;DHT22;9400;50.924;5.328;2022-07-23T05:32:41;17.00;99.90
18541;DHT22;9400;50.924;5.328;2022-07-23T05:35:09;17.00;99.90
18541;DHT22;9400;50.924;5.328;2022-07-23T05:37:37;16.90;99.90
18541;DHT22;9400;50.924;5.328;2022-07-23T05:43:34;17.10;99.90
18541;DHT22;9400;50.924;5.328;2022-07-23T05:46:16;17.20;99.90
18541;DHT22;9400;50.924;5.328;2022-07-23T05:48:43;17.30;99.90
18541;DHT22;9400;50.924;5.328;2022-07-23T05:51:20;17.40;99.90
18541;DHT22;9400;50.924;5.328;2022-07-23T05:53:48;17.50;99.90
18541;DHT22;9400;50.924;5.328;2022-07-23T05:56:17;17.60;99.90
18541;DHT22;9400;50.924;5.328;2022-07-23T05:58:47;17.50;99.90
18541;DHT22;9400;50.924;5.328;2022-07-23T06:01:14;17.60;99.90
18541;DHT22;9400;50.924;5.328;2022-07-23T06:03:42;17.70;99.90
18541;DHT22;9400;50.924;5.328;2022-07-23T06:06:09;17.60;99.90
18541;DHT22;9400;50.924;5.328;2022-07-23T06:08:37;17.80;99.90
18541;DHT22;9400;50.924;5.328;2022-07-23T06:11:04;18.00;99.90
18541;DHT22;9400;50.924;5.328;2022-07-23T06:13:32;18.20;99.90
18541;DHT22;9400;50.924;5.328;2022-07-23T06:16:01;18.40;99.90
18541;DHT22;9400;50.924;5.328;2022-07-23T06:18:28;18.30;99.90
18541;DHT22;9400;50.924;5.328;2022-07-23T06:21:09;18.40;99.90
18541;DHT22;9400;50.924;5.328;2022-07-23T06:23:41;18.60;99.90
18541;DHT22;9400;50.924;5.328;2022-07-23T06:26:16;18.70;99.90
18541;DHT22;9400;50.924;5.328;2022-07-23T06:28:45;18.70;99.90
18541;DHT22;9400;50.924;5.328;2022-07-23T06:31:20;18.70;99.90
18541;DHT22;9400;50.924;5.328;2022-07-23T06:33:48;18.70;99.90
18541;DHT22;9400;50.924;5.328;2022-07-23T06:36:21;18.70;99.90
18541;DHT22;9400;50.924;5.328;2022-07-23T06:38:58;18.80;99.90
18541;DHT22;9400;50.924;5.328;2022-07-23T06:41:26;18.90;99.90
18541;DHT22;9400;50.924;5.328;2022-07-23T06:44:01;18.90;99.90
18541;DHT22;9400;50.924;5.328;2022-07-23T06:46:31;19.10;99.90
18541;DHT22;9400;50.924;5.328;2022-07-23T06:49:12;19.30;99.90
18541;DHT22;9400;50.924;5.328;2022-07-23T06:51:39;19.40;99.90
18541;DHT22;9400;50.924;5.328;2022-07-23T06:54:08;19.50;99.90
18541;DHT22;9400;50.924;5.328;2022-07-23T06:56:36;19.50;99.90
18541;DHT22;9400;50.924;5.328;2022-07-23T06:59:04;19.50;99.90
18541;DHT22;9400;50.924;5.328;2022-07-23T07:01:34;19.50;99.90
18541;DHT22;9400;50.924;5.328;2022-07-23T07:04:01;19.90;99.90
18541;DHT22;9400;50.924;5.328;2022-07-23T07:06:29;20.00;99.90
18541;DHT22;9400;50.924;5.328;2022-07-23T07:08:57;20.00;99.90
18541;DHT22;9400;50.924;5.328;2022-07-23T07:11:28;20.00;99.90
18541;DHT22;9400;50.924;5.328;2022-07-23T07:13:55;20.30;99.90
18541;DHT22;9400;50.924;5.328;2022-07-23T07:16:23;20.00;99.90
18541;DHT22;9400;50.924;5.328;2022-07-23T07:18:52;19.60;99.90
18541;DHT22;9400;50.924;5.328;2022-07-23T07:21:20;19.60;99.90
18541;DHT22;9400;50.924;5.328;2022-07-23T07:23:48;19.80;99.90
18541;DHT22;9400;50.924;5.328;2022-07-23T07:26:16;20.00;99.90
18541;DHT22;9400;50.924;5.328;2022-07-23T07:28:43;20.10;99.90
18541;DHT22;9400;50.924;5.328;2022-07-23T07:31:11;20.30;99.90
18541;DHT22;9400;50.924;5.328;2022-07-23T07:33:38;20.30;99.90
18541;DHT22;9400;50.924;5.328;2022-07-23T07:36:08;20.40;99.90
18541;DHT22;9400;50.924;5.328;2022-07-23T07:38:35;20.30;99.90
18541;DHT22;9400;50.924;5.328;2022-07-23T07:41:03;20.40;99.90
18541;DHT22;9400;50.924;5.328;2022-07-23T07:43:31;20.50;99.90
18541;DHT22;9400;50.924;5.328;2022-07-23T07:45:59;20.70;99.90
18541;DHT22;9400;50.924;5.328;2022-07-23T07:48:27;20.80;99.90
18541;DHT22;9400;50.924;5.328;2022-07-23T07:50:54;20.80;99.90
18541;DHT22;9400;50.924;5.328;2022-07-23T07:53:26;20.90;99.90
18541;DHT22;9400;50.924;5.328;2022-07-23T07:55:54;21.10;99.90
18541;DHT22;9400;50.924;5.328;2022-07-23T07:58:21;21.00;99.90
18541;DHT22;9400;50.924;5.328;2022-07-23T08:00:49;20.90;99.90
18541;DHT22;9400;50.924;5.328;2022-07-23T08:03:17;21.00;99.90
18541;DHT22;9400;50.924;5.328;2022-07-23T08:05:44;21.10;99.90
18541;DHT22;9400;50.924;5.328;2022-07-23T08:08:12;21.20;99.90
18541;DHT22;9400;50.924;5.328;2022-07-23T08:10:43;21.30;99.90
18541;DHT22;9400;50.924;5.328;2022-07-23T08:13:13;21.50;99.90
18541;DHT22;9400;50.924;5.328;2022-07-23T08:15:42;21.50;99.90
18541;DHT22;9400;50.924;5.328;2022-07-23T08:18:10;21.60;99.90
18541;DHT22;9400;50.924;5.328;2022-07-23T08:20:39;21.40;99.90
18541;DHT22;9400;50.924;5.328;2022-07-23T08:23:07;21.30;99.90
18541;DHT22;9400;50.924;5.328;2022-07-23T08:25:38;21.50;99.90
18541;DHT22;9400;50.924;5.328;2022-07-23T08:28:09;21.60;99.90
18541;DHT22;9400;50.924;5.328;2022-07-23T08:30:38;21.60;99.90
18541;DHT22;9400;50.924;5.328;2022-07-23T08:33:08;21.50;99.90
18541;DHT22;9400;50.924;5.328;2022-07-23T08:35:38;21.50;99.90
18541;DHT22;9400;50.924;5.328;2022-07-23T08:38:07;21.60;99.90
18541;DHT22;9400;50.924;5.328;2022-07-23T08:40:38;21.80;99.90
18541;DHT22;9400;50.924;5.328;2022-07-23T08:43:09;21.80;99.90
18541;DHT22;9400;50.924;5.328;2022-07-23T08:45:40;22.00;99.90
18541;DHT22;9400;50.924;5.328;2022-07-23T08:48:12;22.10;99.90
18541;DHT22;9400;50.924;5.328;2022-07-23T08:50:43;22.10;99.90
18541;DHT22;9400;50.924;5.328;2022-07-23T08:53:11;22.30;99.90
18541;DHT22;9400;50.924;5.328;2022-07-23T08:55:44;22.40;99.90
18541;DHT22;9400;50.924;5.328;2022-07-23T08:58:14;22.20;99.90
18541;DHT22;9400;50.924;5.328;2022-07-23T09:00:42;22.10;99.90
18541;DHT22;9400;50.924;5.328;2022-07-23T09:03:16;22.40;99.90
18541;DHT22;9400;50.924;5.328;2022-07-23T09:05:49;22.50;99.90
18541;DHT22;9400;50.924;5.328;2022-07-23T09:08:19;22.60;99.90
18541;DHT22;9400;50.924;5.328;2022-07-23T09:10:50;22.80;99.90
18541;DHT22;9400;50.924;5.328;2022-07-23T09:13:29;22.80;99.90
18541;DHT22;9400;50.924;5.328;2022-07-23T09:15:58;22.80;99.90
18541;DHT22;9400;50.924;5.328;2022-07-23T09:18:37;22.80;99.90
18541;DHT22;9400;50.924;5.328;2022-07-23T09:21:14;23.00;99.90
18541;DHT22;9400;50.924;5.328;2022-07-23T09:23:44;23.20;99.90
18541;DHT22;9400;50.924;5.328;2022-07-23T09:26:24;22.50;99.90
18541;DHT22;9400;50.924;5.328;2022-07-23T09:28:56;22.60;99.90
18541;DHT22;9400;50.924;5.328;2022-07-23T09:31:27;22.70;99.90
18541;DHT22;9400;50.924;5.328;2022-07-23T09:34:12;22.70;99.90
18541;DHT22;9400;50.924;5.328;2022-07-23T09:36:40;22.60;99.90
18541;DHT22;9400;50.924;5.328;2022-07-23T09:39:10;22.70;99.90
18541;DHT22;9400;50.924;5.328;2022-07-23T09:41:40;22.80;99.90
18541;DHT22;9400;50.924;5.328;2022-07-23T09:44:15;22.70;99.90
18541;DHT22;9400;50.924;5.328;2022-07-23T09:46:44;22.90;99.90
18541;DHT22;9400;50.924;5.328;2022-07-23T09:49:20;23.10;99.90
18541;DHT22;9400;50.924;5.328;2022-07-23T09:51:55;23.10;99.90
18541;DHT22;9400;50.924;5.328;2022-07-23T09:54:27;23.30;99.90
18541;DHT22;9400;50.924;5.328;2022-07-23T09:57:04;23.60;99.90
18541;DHT22;9400;50.924;5.328;2022-07-23T09:59:37;23.50;99.90
18541;DHT22;9400;50.924;5.328;2022-07-23T10:02:06;23.30;99.90
18541;DHT22;9400;50.924;5.328;2022-07-23T10:04:34;23.40;99.90
18541;DHT22;9400;50.924;5.328;2022-07-23T10:07:04;23.70;99.90
18541;DHT22;9400;50.924;5.328;2022-07-23T10:09:34;24.00;99.90
18541;DHT22;9400;50.924;5.328;2022-07-23T10:12:04;23.90;99.90
18541;DHT22;9400;50.924;5.328;2022-07-23T10:14:44;24.00;99.90
18541;DHT22;9400;50.924;5.328;2022-07-23T10:17:12;24.30;99.90
18541;DHT22;9400;50.924;5.328;2022-07-23T10:19:40;24.40;99.90
18541;DHT22;9400;50.924;5.328;2022-07-23T10:22:11;24.50;99.90
18541;DHT22;9400;50.924;5.328;2022-07-23T10:24:50;24.50;99.90
18541;DHT22;9400;50.924;5.328;2022-07-23T10:27:35;24.50;99.90
18541;DHT22;9400;50.924;5.328;2022-07-23T10:30:09;24.90;99.90
18541;DHT22;9400;50.924;5.328;2022-07-23T10:32:45;25.10;99.90
18541;DHT22;9400;50.924;5.328;2022-07-23T10:35:26;24.90;99.90
18541;DHT22;9400;50.924;5.328;2022-07-23T10:38:02;24.80;99.90
18541;DHT22;9400;50.924;5.328;2022-07-23T10:40:35;25.00;99.90
18541;DHT22;9400;50.924;5.328;2022-07-23T10:43:15;25.00;99.90
18541;DHT22;9400;50.924;5.328;2022-07-23T10:45:50;25.00;99.90
18541;DHT22;9400;50.924;5.328;2022-07-23T10:48:18;25.30;99.90
18541;DHT22;9400;50.924;5.328;2022-07-23T10:51:08;25.10;99.90
18541;DHT22;9400;50.924;5.328;2022-07-23T10:53:57;25.00;99.90
18541;DHT22;9400;50.924;5.328;2022-07-23T10:57:04;25.60;99.90
18541;DHT22;9400;50.924;5.328;2022-07-23T11:02:42;25.90;99.90
18541;DHT22;9400;50.924;5.328;2022-07-23T11:05:10;26.00;99.90
18541;DHT22;9400;50.924;5.328;2022-07-23T11:08:13;25.90;99.90
18541;DHT22;9400;50.924;5.328;2022-07-23T11:10:48;26.10;99.90
18541;DHT22;9400;50.924;5.328;2022-07-23T11:13:31;25.90;99.90
18541;DHT22;9400;50.924;5.328;2022-07-23T11:16:08;26.10;99.90
18541;DHT22;9400;50.924;5.328;2022-07-23T11:19:05;26.40;99.90
18541;DHT22;9400;50.924;5.328;2022-07-23T11:21:46;26.40;99.90
18541;DHT22;9400;50.924;5.328;2022-07-23T11:24:19;26.70;99.90
18541;DHT22;9400;50.924;5.328;2022-07-23T11:26:50;27.00;99.90
18541;DHT22;9400;50.924;5.328;2022-07-23T11:29:42;27.10;99.90
18541;DHT22;9400;50.924;5.328;2022-07-23T11:32:32;26.90;99.90
18541;DHT22;9400;50.924;5.328;2022-07-23T11:35:03;26.70;99.90
18541;DHT22;9400;50.924;5.328;2022-07-23T11:37:46;26.70;99.90
18541;DHT22;9400;50.924;5.328;2022-07-23T11:40:15;26.60;99.90
18541;DHT22;9400;50.924;5.328;2022-07-23T11:42:54;27.10;99.90
18541;DHT22;9400;50.924;5.328;2022-07-23T11:45:22;26.90;99.90
18541;DHT22;9400;50.924;5.328;2022-07-23T11:47:50;27.30;99.90
18541;DHT22;9400;50.924;5.328;2022-07-23T11:50:24;27.20;99.90
18541;DHT22;9400;50.924;5.328;2022-07-23T11:52:52;27.10;99.90
18541;DHT22;9400;50.924;5.328;2022-07-23T11:55:20;27.20;99.90
18541;DHT22;9400;50.924;5.328;2022-07-23T11:57:50;27.10;99.90
18541;DHT22;9400;50.924;5.328;2022-07-23T12:00:19;27.00;99.90
18541;DHT22;9400;50.924;5.328;2022-07-23T12:02:47;27.00;99.90
18541;DHT22;9400;50.924;5.328;2022-07-23T12:05:19;27.10;99.90
18541;DHT22;9400;50.924;5.328;2022-07-23T12:07:50;27.50;99.90
18541;DHT22;9400;50.924;5.328;2022-07-23T12:10:20;27.70;99.90
18541;DHT22;9400;50.924;5.328;2022-07-23T12:12:49;27.90;99.90
18541;DHT22;9400;50.924;5.328;2022-07-23T12:15:20;27.80;99.90
18541;DHT22;9400;50.924;5.328;2022-07-23T12:17:50;27.80;99.90
18541;DHT22;9400;50.924;5.328;2022-07-23T12:20:23;27.90;99.90
18541;DHT22;9400;50.924;5.328;2022-07-23T12:22:54;28.60;99.90
18541;DHT22;9400;50.924;5.328;2022-07-23T12:25:25;28.80;99.90
18541;DHT22;9400;50.924;5.328;2022-07-23T12:28:02;29.50;99.90
18541;DHT22;9400;50.924;5.328;2022-07-23T12:30:32;29.60;99.90
18541;DHT22;9400;50.924;5.328;2022-07-23T12:33:00;29.80;99.90
18541;DHT22;9400;50.924;5.328;2022-07-23T12:35:35;30.00;99.90
18541;DHT22;9400;50.924;5.328;2022-07-23T12:38:09;29.80;99.90
18541;DHT22;9400;50.924;5.328;2022-07-23T12:40:42;30.30;99.90
18541;DHT22;9400;50.924;5.328;2022-07-23T12:43:18;30.60;99.90
18541;DHT22;9400;50.924;5.328;2022-07-23T12:45:49;31.10;99.90
18541;DHT22;9400;50.924;5.328;2022-07-23T12:48:19;30.60;99.90
18541;DHT22;9400;50.924;5.328;2022-07-23T12:50:57;29.90;99.90
18541;DHT22;9400;50.924;5.328;2022-07-23T12:53:29;30.20;99.90
18541;DHT22;9400;50.924;5.328;2022-07-23T12:56:01;30.50;99.90
18541;DHT22;9400;50.924;5.328;2022-07-23T12:58:41;30.10;99.90
18541;DHT22;9400;50.924;5.328;2022-07-23T13:01:21;29.90;99.90
18541;DHT22;9400;50.924;5.328;2022-07-23T13:03:57;30.10;99.90
18541;DHT22;9400;50.924;5.328;2022-07-23T13:06:28;30.40;99.90
18541;DHT22;9400;50.924;5.328;2022-07-23T13:08:55;30.40;99.90
18541;DHT22;9400;50.924;5.328;2022-07-23T13:11:23;30.80;99.90
18541;DHT22;9400;50.924;5.328;2022-07-23T13:13:51;32.00;99.90
18541;DHT22;9400;50.924;5.328;2022-07-23T13:16:19;31.50;99.90
18541;DHT22;9400;50.924;5.328;2022-07-23T13:18:46;31.80;99.90
18541;DHT22;9400;50.924;5.328;2022-07-23T13:21:18;31.70;99.90
18541;DHT22;9400;50.924;5.328;2022-07-23T13:23:47;31.40;99.90
18541;DHT22;9400;50.924;5.328;2022-07-23T13:26:15;32.20;99.90
18541;DHT22;9400;50.924;5.328;2022-07-23T13:28:44;32.20;99.90
18541;DHT22;9400;50.924;5.328;2022-07-23T13:31:11;31.80;99.90
18541;DHT22;9400;50.924;5.328;2022-07-23T13:33:39;33.00;99.90
18541;DHT22;9400;50.924;5.328;2022-07-23T13:36:07;32.90;99.90
18541;DHT22;9400;50.924;5.328;2022-07-23T13:38:34;33.30;99.90
18541;DHT22;9400;50.924;5.328;2022-07-23T13:41:05;33.80;99.90
18541;DHT22;9400;50.924;5.328;2022-07-23T13:43:36;34.40;99.90
18541;DHT22;9400;50.924;5.328;2022-07-23T13:46:07;34.10;99.90
18541;DHT22;9400;50.924;5.328;2022-07-23T13:48:35;34.10;99.90
18541;DHT22;9400;50.924;5.328;2022-07-23T13:51:03;34.70;99.90
18541;DHT22;9400;50.924;5.328;2022-07-23T13:53:31;34.20;99.90
18541;DHT22;9400;50.924;5.328;2022-07-23T13:55:59;33.90;99.90
18541;DHT22;9400;50.924;5.328;2022-07-23T13:58:28;33.80;99.90
18541;DHT22;9400;50.924;5.328;2022-07-23T14:00:56;33.50;99.90
18541;DHT22;9400;50.924;5.328;2022-07-23T14:03:24;33.70;99.90
18541;DHT22;9400;50.924;5.328;2022-07-23T14:05:52;35.10;99.90
18541;DHT22;9400;50.924;5.328;2022-07-23T14:08:20;35.30;99.90
18541;DHT22;9400;50.924;5.328;2022-07-23T14:10:48;35.80;99.90
18541;DHT22;9400;50.924;5.328;2022-07-23T14:13:15;35.70;99.90
18541;DHT22;9400;50.924;5.328;2022-07-23T14:15:44;35.60;99.90
18541;DHT22;9400;50.924;5.328;2022-07-23T14:18:12;36.70;99.90
18541;DHT22;9400;50.924;5.328;2022-07-23T14:20:39;34.50;99.90
18541;DHT22;9400;50.924;5.328;2022-07-23T14:23:07;35.20;99.90
18541;DHT22;9400;50.924;5.328;2022-07-23T14:25:38;36.40;99.90
18541;DHT22;9400;50.924;5.328;2022-07-23T14:28:06;36.60;99.90
18541;DHT22;9400;50.924;5.328;2022-07-23T14:30:34;36.40;99.90
18541;DHT22;9400;50.924;5.328;2022-07-23T14:33:03;36.20;99.90
18541;DHT22;9400;50.924;5.328;2022-07-23T14:35:31;36.80;99.90
18541;DHT22;9400;50.924;5.328;2022-07-23T14:38:00;36.30;99.90
18541;DHT22;9400;50.924;5.328;2022-07-23T14:40:27;35.80;99.90
18541;DHT22;9400;50.924;5.328;2022-07-23T14:42:55;34.20;99.90
18541;DHT22;9400;50.924;5.328;2022-07-23T14:45:23;34.10;99.90
18541;DHT22;9400;50.924;5.328;2022-07-23T14:47:51;34.50;99.90
18541;DHT22;9400;50.924;5.328;2022-07-23T14:50:21;35.70;99.90
18541;DHT22;9400;50.924;5.328;2022-07-23T14:52:49;35.20;99.90
18541;DHT22;9400;50.924;5.328;2022-07-23T14:55:21;35.40;99.90
18541;DHT22;9400;50.924;5.328;2022-07-23T14:57:49;36.20;99.90
18541;DHT22;9400;50.924;5.328;2022-07-23T15:00:17;35.30;99.90
18541;DHT22;9400;50.924;5.328;2022-07-23T15:02:46;35.10;99.90
18541;DHT22;9400;50.924;5.328;2022-07-23T15:05:13;34.90;99.90
18541;DHT22;9400;50.924;5.328;2022-07-23T15:07:48;34.50;99.90
18541;DHT22;9400;50.924;5.328;2022-07-23T15:10:16;35.40;99.90
18541;DHT22;9400;50.924;5.328;2022-07-23T15:12:43;36.00;99.90
18541;DHT22;9400;50.924;5.328;2022-07-23T15:15:11;35.50;99.90
18541;DHT22;9400;50.924;5.328;2022-07-23T15:17:43;35.10;99.90
18541;DHT22;9400;50.924;5.328;2022-07-23T15:20:11;35.10;99.90
18541;DHT22;9400;50.924;5.328;2022-07-23T15:22:40;34.10;99.90
18541;DHT22;9400;50.924;5.328;2022-07-23T15:25:09;34.00;99.90
18541;DHT22;9400;50.924;5.328;2022-07-23T15:27:37;34.20;99.90
18541;DHT22;9400;50.924;5.328;2022-07-23T15:30:07;34.10;99.90
18541;DHT22;9400;50.924;5.328;2022-07-23T15:32:35;34.30;99.90
18541;DHT22;9400;50.924;5.328;2022-07-23T15:35:02;34.30;99.90
18541;DHT22;9400;50.924;5.328;2022-07-23T15:37:32;34.60;99.90
18541;DHT22;9400;50.924;5.328;2022-07-23T15:40:00;34.60;99.90
18541;DHT22;9400;50.924;5.328;2022-07-23T15:42:31;34.30;99.90
18541;DHT22;9400;50.924;5.328;2022-07-23T15:44:59;33.60;99.90
18541;DHT22;9400;50.924;5.328;2022-07-23T15:47:30;33.70;99.90
18541;DHT22;9400;50.924;5.328;2022-07-23T15:49:57;33.00;99.90
18541;DHT22;9400;50.924;5.328;2022-07-23T15:52:25;33.20;99.90
18541;DHT22;9400;50.924;5.328;2022-07-23T15:54:53;33.80;99.90
18541;DHT22;9400;50.924;5.328;2022-07-23T15:57:20;33.70;99.90
18541;DHT22;9400;50.924;5.328;2022-07-23T15:59:50;33.70;99.90
18541;DHT22;9400;50.924;5.328;2022-07-23T16:02:18;34.10;99.90
18541;DHT22;9400;50.924;5.328;2022-07-23T16:04:45;34.70;99.90
18541;DHT22;9400;50.924;5.328;2022-07-23T16:07:13;34.80;99.90
18541;DHT22;9400;50.924;5.328;2022-07-23T16:09:40;34.90;99.90